sensor_id;sensor_type;location;lat;lon;timestamp;P1;durP1;ratioP1;P2;durP2;ratioP2
4646;SDS011;2336;47.822;7.564;2024-01-30T00:02:02;13.77;;;12.47;;
4646;SDS011;2336;47.822;7.564;2024-01-30T00:04:29;16.00;;;12.50;;
4646;SDS011;2336;47.822;7.564;2024-01-30T00:06:56;14.47;;;12.97;;
4646;SDS011;2336;47.822;7.564;2024-01-30T00:09:23;13.63;;;12.30;;
4646;SDS011;2336;47.822;7.564;2024-01-30T00:11:49;13.67;;;12.27;;
4646;SDS011;2336;47.822;7.564;2024-01-30T00:14:16;15.20;;;13.70;;
4646;SDS011;2336;47.822;7.564;2024-01-30T00:16:45;14.80;;;13.40;;
4646;SDS011;2336;47.822;7.564;2024-01-30T00:19:11;14.27;;;12.77;;
4646;SDS011;2336;47.822;7.564;2024-01-30T00:21:38;15.97;;;14.07;;
4646;SDS011;2336;47.822;7.564;2024-01-30T00:24:05;15.30;;;13.70;;
4646;SDS011;2336;47.822;7.564;2024-01-30T00:26:32;15.57;;;13.07;;
4646;SDS011;2336;47.822;7.564;2024-01-30T00:28:58;14.67;;;13.27;;
4646;SDS011;2336;47.822;7.564;2024-01-30T00:31:25;16.33;;;13.60;;
4646;SDS011;2336;47.822;7.564;2024-01-30T00:33:53;15.00;;;13.50;;
4646;SDS011;2336;47.822;7.564;2024-01-30T00:36:20;14.73;;;13.23;;
4646;SDS011;2336;47.822;7.564;2024-01-30T00:38:47;15.60;;;13.90;;
4646;SDS011;2336;47.822;7.564;2024-01-30T00:41:14;15.30;;;12.83;;
4646;SDS011;2336;47.822;7.564;2024-01-30T00:43:43;15.00;;;13.40;;
4646;SDS011;2336;47.822;7.564;2024-01-30T00:46:10;13.57;;;11.90;;
4646;SDS011;2336;47.822;7.564;2024-01-30T00:48:36;14.30;;;12.17;;
4646;SDS011;2336;47.822;7.564;2024-01-30T00:51:05;13.90;;;12.47;;
4646;SDS011;2336;47.822;7.564;2024-01-30T00:53:31;15.53;;;13.27;;
4646;SDS011;2336;47.822;7.564;2024-01-30T00:55:58;13.77;;;12.33;;
4646;SDS011;2336;47.822;7.564;2024-01-30T00:58:25;13.93;;;12.10;;
4646;SDS011;2336;47.822;7.564;2024-01-30T01:00:52;13.83;;;12.53;;
4646;SDS011;2336;47.822;7.564;2024-01-30T01:03:18;14.00;;;12.57;;
4646;SDS011;2336;47.822;7.564;2024-01-30T01:05:46;13.37;;;12.07;;
4646;SDS011;2336;47.822;7.564;2024-01-30T01:08:14;13.70;;;12.40;;
4646;SDS011;2336;47.822;7.564;2024-01-30T01:10:41;13.07;;;11.77;;
4646;SDS011;2336;47.822;7.564;2024-01-30T01:13:08;12.80;;;11.50;;
4646;SDS011;2336;47.822;7.564;2024-01-30T01:15:35;12.50;;;11.20;;
4646;SDS011;2336;47.822;7.564;2024-01-30T01:18:02;15.00;;;13.40;;
4646;SDS011;2336;47.822;7.564;2024-01-30T01:20:29;14.77;;;13.20;;
4646;SDS011;2336;47.822;7.564;2024-01-30T01:22:56;13.53;;;12.23;;
4646;SDS011;2336;47.822;7.564;2024-01-30T01:25:24;14.00;;;12.60;;
4646;SDS011;2336;47.822;7.564;2024-01-30T01:27:51;14.90;;;13.43;;
4646;SDS011;2336;47.822;7.564;2024-01-30T01:30:18;14.70;;;12.70;;
4646;SDS011;2336;47.822;7.564;2024-01-30T01:32:46;15.87;;;14.20;;
4646;SDS011;2336;47.822;7.564;2024-01-30T01:35:19;14.60;;;13.10;;
4646;SDS011;2336;47.822;7.564;2024-01-30T01:37:47;14.53;;;12.83;;
4646;SDS011;2336;47.822;7.564;2024-01-30T01:40:19;14.90;;;13.30;;
4646;SDS011;2336;47.822;7.564;2024-01-30T01:42:49;14.60;;;13.10;;
4646;SDS011;2336;47.822;7.564;2024-01-30T01:45:15;14.13;;;12.83;;
4646;SDS011;2336;47.822;7.564;2024-01-30T01:47:42;15.20;;;13.67;;
4646;SDS011;2336;47.822;7.564;2024-01-30T01:50:12;14.70;;;13.13;;
4646;SDS011;2336;47.822;7.564;2024-01-30T01:52:39;16.27;;;14.20;;
4646;SDS011;2336;47.822;7.564;2024-01-30T01:55:07;14.27;;;12.87;;
4646;SDS011;2336;47.822;7.564;2024-01-30T01:57:34;15.93;;;14.10;;
4646;SDS011;2336;47.822;7.564;2024-01-30T02:00:02;14.73;;;13.23;;
4646;SDS011;2336;47.822;7.564;2024-01-30T02:02:30;16.57;;;13.93;;
4646;SDS011;2336;47.822;7.564;2024-01-30T02:05:01;15.50;;;13.97;;
4646;SDS011;2336;47.822;7.564;2024-01-30T02:07:29;15.90;;;14.40;;
4646;SDS011;2336;47.822;7.564;2024-01-30T02:09:55;15.43;;;13.20;;
4646;SDS011;2336;47.822;7.564;2024-01-30T02:12:22;16.43;;;14.93;;
4646;SDS011;2336;47.822;7.564;2024-01-30T02:14:49;15.97;;;14.33;;
4646;SDS011;2336;47.822;7.564;2024-01-30T02:17:18;16.30;;;14.60;;
4646;SDS011;2336;47.822;7.564;2024-01-30T02:19:45;15.53;;;14.00;;
4646;SDS011;2336;47.822;7.564;2024-01-30T02:22:13;16.90;;;15.10;;
4646;SDS011;2336;47.822;7.564;2024-01-30T02:24:40;19.93;;;15.03;;
4646;SDS011;2336;47.822;7.564;2024-01-30T02:27:07;17.20;;;15.37;;
4646;SDS011;2336;47.822;7.564;2024-01-30T02:29:34;15.97;;;13.40;;
4646;SDS011;2336;47.822;7.564;2024-01-30T02:32:01;15.70;;;14.00;;
4646;SDS011;2336;47.822;7.564;2024-01-30T02:34:27;15.07;;;13.53;;
4646;SDS011;2336;47.822;7.564;2024-01-30T02:36:54;15.80;;;14.20;;
4646;SDS011;2336;47.822;7.564;2024-01-30T02:39:22;16.43;;;14.37;;
4646;SDS011;2336;47.822;7.564;2024-01-30T02:41:49;16.57;;;14.57;;
4646;SDS011;2336;47.822;7.564;2024-01-30T02:44:16;14.30;;;12.97;;
4646;SDS011;2336;47.822;7.564;2024-01-30T02:46:43;16.37;;;14.27;;
4646;SDS011;2336;47.822;7.564;2024-01-30T02:49:10;15.43;;;13.20;;
4646;SDS011;2336;47.822;7.564;2024-01-30T02:51:37;15.50;;;13.90;;
4646;SDS011;2336;47.822;7.564;2024-01-30T02:54:04;14.20;;;12.80;;
4646;SDS011;2336;47.822;7.564;2024-01-30T02:56:32;14.83;;;13.30;;
4646;SDS011;2336;47.822;7.564;2024-01-30T02:59:04;15.23;;;13.80;;
4646;SDS011;2336;47.822;7.564;2024-01-30T03:01:31;14.63;;;13.23;;
4646;SDS011;2336;47.822;7.564;2024-01-30T03:03:57;14.63;;;13.20;;
4646;SDS011;2336;47.822;7.564;2024-01-30T03:06:24;15.53;;;13.10;;
4646;SDS011;2336;47.822;7.564;2024-01-30T03:08:51;13.87;;;12.50;;
4646;SDS011;2336;47.822;7.564;2024-01-30T03:11:18;14.70;;;13.20;;
4646;SDS011;2336;47.822;7.564;2024-01-30T03:13:46;15.50;;;13.90;;
4646;SDS011;2336;47.822;7.564;2024-01-30T03:16:13;14.00;;;12.60;;
4646;SDS011;2336;47.822;7.564;2024-01-30T03:18:39;13.60;;;12.30;;
4646;SDS011;2336;47.822;7.564;2024-01-30T03:21:06;16.03;;;13.00;;
4646;SDS011;2336;47.822;7.564;2024-01-30T03:23:33;13.33;;;12.13;;
4646;SDS011;2336;47.822;7.564;2024-01-30T03:26:00;13.20;;;11.90;;
4646;SDS011;2336;47.822;7.564;2024-01-30T03:28:29;12.50;;;11.40;;
4646;SDS011;2336;47.822;7.564;2024-01-30T03:30:57;13.23;;;11.93;;
4646;SDS011;2336;47.822;7.564;2024-01-30T03:33:23;12.17;;;11.07;;
4646;SDS011;2336;47.822;7.564;2024-01-30T03:35:50;13.20;;;11.90;;
4646;SDS011;2336;47.822;7.564;2024-01-30T03:38:17;12.70;;;11.47;;
4646;SDS011;2336;47.822;7.564;2024-01-30T03:40:43;12.17;;;10.97;;
4646;SDS011;2336;47.822;7.564;2024-01-30T03:43:10;11.40;;;10.30;;
4646;SDS011;2336;47.822;7.564;2024-01-30T03:45:37;11.40;;;10.27;;
4646;SDS011;2336;47.822;7.564;2024-01-30T03:48:06;12.30;;;11.20;;
4646;SDS011;2336;47.822;7.564;2024-01-30T03:50:33;11.97;;;10.77;;
4646;SDS011;2336;47.822;7.564;2024-01-30T03:53:00;11.47;;;9.20;;
4646;SDS011;2336;47.822;7.564;2024-01-30T03:55:26;11.00;;;10.00;;
4646;SDS011;2336;47.822;7.564;2024-01-30T03:57:53;10.20;;;8.70;;
4646;SDS011;2336;47.822;7.564;2024-01-30T04:00:23;9.13;;;8.33;;
4646;SDS011;2336;47.822;7.564;2024-01-30T04:02:50;8.93;;;8.13;;
4646;SDS011;2336;47.822;7.564;2024-01-30T04:05:18;7.80;;;7.20;;
4646;SDS011;2336;47.822;7.564;2024-01-30T04:07:45;9.33;;;8.43;;
4646;SDS011;2336;47.822;7.564;2024-01-30T04:10:12;9.67;;;7.03;;
4646;SDS011;2336;47.822;7.564;2024-01-30T04:12:39;8.40;;;7.70;;
4646;SDS011;2336;47.822;7.564;2024-01-30T04:15:05;7.10;;;6.50;;
4646;SDS011;2336;47.822;7.564;2024-01-30T04:17:32;6.43;;;5.93;;
4646;SDS011;2336;47.822;7.564;2024-01-30T04:19:59;5.70;;;5.20;;
4646;SDS011;2336;47.822;7.564;2024-01-30T04:22:27;5.70;;;5.30;;
4646;SDS011;2336;47.822;7.564;2024-01-30T04:24:54;4.60;;;4.40;;
4646;SDS011;2336;47.822;7.564;2024-01-30T04:27:21;5.10;;;4.80;;
4646;SDS011;2336;47.822;7.564;2024-01-30T04:29:48;5.10;;;4.80;;
4646;SDS011;2336;47.822;7.564;2024-01-30T04:32:14;4.77;;;4.47;;
4646;SDS011;2336;47.822;7.564;2024-01-30T04:34:41;5.00;;;4.57;;
4646;SDS011;2336;47.822;7.564;2024-01-30T04:37:08;4.83;;;4.43;;
4646;SDS011;2336;47.822;7.564;2024-01-30T04:39:36;4.87;;;4.57;;
4646;SDS011;2336;47.822;7.564;2024-01-30T04:42:03;4.83;;;4.40;;
4646;SDS011;2336;47.822;7.564;2024-01-30T04:44:30;4.80;;;4.50;;
4646;SDS011;2336;47.822;7.564;2024-01-30T04:46:57;4.30;;;4.10;;
4646;SDS011;2336;47.822;7.564;2024-01-30T04:49:26;4.30;;;4.00;;
4646;SDS011;2336;47.822;7.564;2024-01-30T04:51:54;4.10;;;3.90;;
4646;SDS011;2336;47.822;7.564;2024-01-30T04:54:21;5.07;;;4.67;;
4646;SDS011;2336;47.822;7.564;2024-01-30T04:56:49;4.97;;;4.57;;
4646;SDS011;2336;47.822;7.564;2024-01-30T04:59:16;4.20;;;4.00;;
4646;SDS011;2336;47.822;7.564;2024-01-30T05:01:42;4.73;;;4.30;;
4646;SDS011;2336;47.822;7.564;2024-01-30T05:04:09;4.27;;;4.00;;
4646;SDS011;2336;47.822;7.564;2024-01-30T05:06:36;4.30;;;4.10;;
4646;SDS011;2336;47.822;7.564;2024-01-30T05:09:03;4.60;;;4.40;;
4646;SDS011;2336;47.822;7.564;2024-01-30T05:11:30;4.20;;;4.00;;
4646;SDS011;2336;47.822;7.564;2024-01-30T05:13:58;4.50;;;4.20;;
4646;SDS011;2336;47.822;7.564;2024-01-30T05:16:25;6.80;;;4.67;;
4646;SDS011;2336;47.822;7.564;2024-01-30T05:18:51;4.60;;;4.30;;
4646;SDS011;2336;47.822;7.564;2024-01-30T05:21:18;4.23;;;3.93;;
4646;SDS011;2336;47.822;7.564;2024-01-30T05:23:45;4.50;;;4.23;;
4646;SDS011;2336;47.822;7.564;2024-01-30T05:26:12;5.17;;;4.77;;
4646;SDS011;2336;47.822;7.564;2024-01-30T05:28:38;5.93;;;5.43;;
4646;SDS011;2336;47.822;7.564;2024-01-30T05:31:07;5.23;;;4.93;;
4646;SDS011;2336;47.822;7.564;2024-01-30T05:33:34;5.23;;;4.93;;
4646;SDS011;2336;47.822;7.564;2024-01-30T05:36:01;5.93;;;5.43;;
4646;SDS011;2336;47.822;7.564;2024-01-30T05:38:27;6.00;;;5.60;;
4646;SDS011;2336;47.822;7.564;2024-01-30T05:40:55;6.50;;;5.90;;
4646;SDS011;2336;47.822;7.564;2024-01-30T05:43:23;5.80;;;5.20;;
4646;SDS011;2336;47.822;7.564;2024-01-30T05:45:50;8.53;;;6.03;;
4646;SDS011;2336;47.822;7.564;2024-01-30T05:48:19;6.67;;;5.97;;
4646;SDS011;2336;47.822;7.564;2024-01-30T05:50:44;7.20;;;6.60;;
4646;SDS011;2336;47.822;7.564;2024-01-30T05:53:11;6.40;;;5.80;;
4646;SDS011;2336;47.822;7.564;2024-01-30T05:55:38;6.43;;;5.83;;
4646;SDS011;2336;47.822;7.564;2024-01-30T05:58:05;6.70;;;5.20;;
4646;SDS011;2336;47.822;7.564;2024-01-30T06:00:31;8.37;;;7.67;;
4646;SDS011;2336;47.822;7.564;2024-01-30T06:02:58;6.53;;;6.10;;
4646;SDS011;2336;47.822;7.564;2024-01-30T06:05:26;7.57;;;6.97;;
4646;SDS011;2336;47.822;7.564;2024-01-30T06:07:53;9.00;;;8.10;;
4646;SDS011;2336;47.822;7.564;2024-01-30T06:10:20;8.03;;;7.30;;
4646;SDS011;2336;47.822;7.564;2024-01-30T06:12:46;12.43;;;11.13;;
4646;SDS011;2336;47.822;7.564;2024-01-30T06:15:14;8.13;;;7.43;;
4646;SDS011;2336;47.822;7.564;2024-01-30T06:17:41;8.40;;;7.70;;
4646;SDS011;2336;47.822;7.564;2024-01-30T06:20:07;11.97;;;9.43;;
4646;SDS011;2336;47.822;7.564;2024-01-30T06:22:36;12.10;;;9.10;;
4646;SDS011;2336;47.822;7.564;2024-01-30T06:25:03;11.27;;;9.50;;
4646;SDS011;2336;47.822;7.564;2024-01-30T06:27:30;11.97;;;9.00;;
4646;SDS011;2336;47.822;7.564;2024-01-30T06:29:57;10.40;;;9.37;;
4646;SDS011;2336;47.822;7.564;2024-01-30T06:32:24;10.20;;;9.30;;
4646;SDS011;2336;47.822;7.564;2024-01-30T06:34:51;10.77;;;9.87;;
4646;SDS011;2336;47.822;7.564;2024-01-30T06:37:17;10.17;;;9.20;;
4646;SDS011;2336;47.822;7.564;2024-01-30T06:39:45;9.97;;;9.07;;
4646;SDS011;2336;47.822;7.564;2024-01-30T06:42:12;11.57;;;10.47;;
4646;SDS011;2336;47.822;7.564;2024-01-30T06:44:39;12.13;;;10.33;;
4646;SDS011;2336;47.822;7.564;2024-01-30T06:47:06;11.90;;;10.80;;
4646;SDS011;2336;47.822;7.564;2024-01-30T06:49:32;10.47;;;9.57;;
4646;SDS011;2336;47.822;7.564;2024-01-30T06:51:59;12.93;;;9.50;;
4646;SDS011;2336;47.822;7.564;2024-01-30T06:54:26;11.93;;;10.67;;
4646;SDS011;2336;47.822;7.564;2024-01-30T06:56:54;10.80;;;9.87;;
4646;SDS011;2336;47.822;7.564;2024-01-30T06:59:21;11.10;;;10.00;;
4646;SDS011;2336;47.822;7.564;2024-01-30T07:01:48;12.73;;;9.80;;
4646;SDS011;2336;47.822;7.564;2024-01-30T07:04:14;10.60;;;9.60;;
4646;SDS011;2336;47.822;7.564;2024-01-30T07:06:42;10.97;;;9.90;;
4646;SDS011;2336;47.822;7.564;2024-01-30T07:09:08;11.90;;;10.70;;
4646;SDS011;2336;47.822;7.564;2024-01-30T07:11:35;10.43;;;9.40;;
4646;SDS011;2336;47.822;7.564;2024-01-30T07:14:03;10.10;;;9.17;;
4646;SDS011;2336;47.822;7.564;2024-01-30T07:16:30;10.67;;;9.77;;
4646;SDS011;2336;47.822;7.564;2024-01-30T07:18:57;12.33;;;11.17;;
4646;SDS011;2336;47.822;7.564;2024-01-30T07:21:24;14.23;;;11.03;;
4646;SDS011;2336;47.822;7.564;2024-01-30T07:23:53;12.90;;;11.50;;
4646;SDS011;2336;47.822;7.564;2024-01-30T07:26:20;12.93;;;11.70;;
4646;SDS011;2336;47.822;7.564;2024-01-30T07:28:46;12.37;;;11.17;;
4646;SDS011;2336;47.822;7.564;2024-01-30T07:31:16;11.50;;;10.50;;
4646;SDS011;2336;47.822;7.564;2024-01-30T07:33:45;12.50;;;10.97;;
4646;SDS011;2336;47.822;7.564;2024-01-30T07:36:12;12.80;;;11.60;;
4646;SDS011;2336;47.822;7.564;2024-01-30T07:38:39;14.80;;;11.43;;
4646;SDS011;2336;47.822;7.564;2024-01-30T07:41:06;12.60;;;10.93;;
4646;SDS011;2336;47.822;7.564;2024-01-30T07:43:33;12.10;;;10.93;;
4646;SDS011;2336;47.822;7.564;2024-01-30T07:46:00;14.20;;;11.40;;
4646;SDS011;2336;47.822;7.564;2024-01-30T07:48:29;12.20;;;10.80;;
4646;SDS011;2336;47.822;7.564;2024-01-30T07:50:56;15.83;;;12.83;;
4646;SDS011;2336;47.822;7.564;2024-01-30T07:53:23;15.47;;;13.00;;
4646;SDS011;2336;47.822;7.564;2024-01-30T07:55:50;61.77;;;17.67;;
4646;SDS011;2336;47.822;7.564;2024-01-30T07:58:16;12.80;;;10.23;;
4646;SDS011;2336;47.822;7.564;2024-01-30T08:00:44;14.07;;;11.23;;
4646;SDS011;2336;47.822;7.564;2024-01-30T08:03:11;10.80;;;9.90;;
4646;SDS011;2336;47.822;7.564;2024-01-30T08:05:39;12.00;;;10.60;;
4646;SDS011;2336;47.822;7.564;2024-01-30T08:08:06;28.60;;;22.40;;
4646;SDS011;2336;47.822;7.564;2024-01-30T08:10:32;24.73;;;19.93;;
4646;SDS011;2336;47.822;7.564;2024-01-30T08:12:59;17.43;;;15.60;;
4646;SDS011;2336;47.822;7.564;2024-01-30T08:15:26;14.53;;;12.53;;
4646;SDS011;2336;47.822;7.564;2024-01-30T08:17:53;13.70;;;12.13;;
4646;SDS011;2336;47.822;7.564;2024-01-30T08:20:22;11.37;;;10.30;;
4646;SDS011;2336;47.822;7.564;2024-01-30T08:22:51;11.73;;;10.63;;
4646;SDS011;2336;47.822;7.564;2024-01-30T08:25:17;11.20;;;10.00;;
4646;SDS011;2336;47.822;7.564;2024-01-30T08:27:44;12.17;;;10.97;;
4646;SDS011;2336;47.822;7.564;2024-01-30T08:30:11;11.70;;;10.50;;
4646;SDS011;2336;47.822;7.564;2024-01-30T08:32:38;11.73;;;10.60;;
4646;SDS011;2336;47.822;7.564;2024-01-30T08:35:05;11.40;;;10.30;;
4646;SDS011;2336;47.822;7.564;2024-01-30T08:37:33;11.80;;;10.60;;
4646;SDS011;2336;47.822;7.564;2024-01-30T08:40:01;13.83;;;12.23;;
4646;SDS011;2336;47.822;7.564;2024-01-30T08:42:29;16.33;;;13.60;;
4646;SDS011;2336;47.822;7.564;2024-01-30T08:44:56;13.60;;;12.30;;
4646;SDS011;2336;47.822;7.564;2024-01-30T08:47:23;66.57;;;38.80;;
4646;SDS011;2336;47.822;7.564;2024-01-30T08:49:50;251.83;;;118.60;;
4646;SDS011;2336;47.822;7.564;2024-01-30T08:52:17;185.00;;;85.90;;
4646;SDS011;2336;47.822;7.564;2024-01-30T08:54:43;122.93;;;58.73;;
4646;SDS011;2336;47.822;7.564;2024-01-30T08:57:12;38.10;;;20.97;;
4646;SDS011;2336;47.822;7.564;2024-01-30T08:59:38;37.33;;;22.80;;
4646;SDS011;2336;47.822;7.564;2024-01-30T09:02:05;24.60;;;16.00;;
4646;SDS011;2336;47.822;7.564;2024-01-30T09:04:32;15.00;;;11.93;;
4646;SDS011;2336;47.822;7.564;2024-01-30T09:06:59;10.40;;;9.47;;
4646;SDS011;2336;47.822;7.564;2024-01-30T09:09:26;10.67;;;9.50;;
4646;SDS011;2336;47.822;7.564;2024-01-30T09:11:52;10.17;;;8.80;;
4646;SDS011;2336;47.822;7.564;2024-01-30T09:14:21;63.33;;;34.70;;
4646;SDS011;2336;47.822;7.564;2024-01-30T09:16:48;39.63;;;22.10;;
4646;SDS011;2336;47.822;7.564;2024-01-30T09:19:14;21.00;;;15.27;;
4646;SDS011;2336;47.822;7.564;2024-01-30T09:21:41;77.30;;;46.70;;
4646;SDS011;2336;47.822;7.564;2024-01-30T09:24:08;35.13;;;23.37;;
4646;SDS011;2336;47.822;7.564;2024-01-30T09:26:35;45.33;;;26.70;;
4646;SDS011;2336;47.822;7.564;2024-01-30T09:29:02;32.63;;;22.27;;
4646;SDS011;2336;47.822;7.564;2024-01-30T09:31:30;23.73;;;17.33;;
4646;SDS011;2336;47.822;7.564;2024-01-30T09:33:57;17.40;;;13.77;;
4646;SDS011;2336;47.822;7.564;2024-01-30T09:36:24;11.30;;;10.07;;
4646;SDS011;2336;47.822;7.564;2024-01-30T09:38:50;10.63;;;9.53;;
4646;SDS011;2336;47.822;7.564;2024-01-30T09:41:17;13.40;;;9.40;;
4646;SDS011;2336;47.822;7.564;2024-01-30T09:43:47;20.67;;;14.77;;
4646;SDS011;2336;47.822;7.564;2024-01-30T09:46:14;182.57;;;99.30;;
4646;SDS011;2336;47.822;7.564;2024-01-30T09:48:45;154.43;;;84.50;;
4646;SDS011;2336;47.822;7.564;2024-01-30T09:51:12;74.13;;;43.77;;
4646;SDS011;2336;47.822;7.564;2024-01-30T09:53:41;27.80;;;18.73;;
4646;SDS011;2336;47.822;7.564;2024-01-30T09:56:09;13.50;;;10.27;;
4646;SDS011;2336;47.822;7.564;2024-01-30T09:58:38;8.33;;;7.47;;
4646;SDS011;2336;47.822;7.564;2024-01-30T10:01:05;10.20;;;7.70;;
4646;SDS011;2336;47.822;7.564;2024-01-30T10:03:32;8.13;;;6.63;;
4646;SDS011;2336;47.822;7.564;2024-01-30T10:06:01;8.50;;;6.47;;
4646;SDS011;2336;47.822;7.564;2024-01-30T10:08:29;5.30;;;4.90;;
4646;SDS011;2336;47.822;7.564;2024-01-30T10:10:56;5.23;;;4.83;;
4646;SDS011;2336;47.822;7.564;2024-01-30T10:13:23;9.33;;;5.20;;
4646;SDS011;2336;47.822;7.564;2024-01-30T10:15:49;4.80;;;4.50;;
4646;SDS011;2336;47.822;7.564;2024-01-30T10:18:17;7.63;;;6.93;;
4646;SDS011;2336;47.822;7.564;2024-01-30T10:20:44;5.50;;;5.00;;
4646;SDS011;2336;47.822;7.564;2024-01-30T10:23:12;8.63;;;5.10;;
4646;SDS011;2336;47.822;7.564;2024-01-30T10:25:39;5.17;;;4.60;;
4646;SDS011;2336;47.822;7.564;2024-01-30T10:28:06;4.67;;;4.40;;
4646;SDS011;2336;47.822;7.564;2024-01-30T10:30:33;5.53;;;5.13;;
4646;SDS011;2336;47.822;7.564;2024-01-30T10:33:00;5.20;;;4.70;;
4646;SDS011;2336;47.822;7.564;2024-01-30T10:35:28;5.43;;;5.03;;
4646;SDS011;2336;47.822;7.564;2024-01-30T10:37:55;5.27;;;4.93;;
4646;SDS011;2336;47.822;7.564;2024-01-30T10:40:26;6.10;;;5.40;;
4646;SDS011;2336;47.822;7.564;2024-01-30T10:42:55;6.70;;;4.97;;
4646;SDS011;2336;47.822;7.564;2024-01-30T10:45:22;6.23;;;5.73;;
4646;SDS011;2336;47.822;7.564;2024-01-30T10:47:53;7.63;;;5.17;;
4646;SDS011;2336;47.822;7.564;2024-01-30T10:50:22;5.60;;;5.07;;
4646;SDS011;2336;47.822;7.564;2024-01-30T10:52:51;5.80;;;5.30;;
4646;SDS011;2336;47.822;7.564;2024-01-30T10:55:19;5.57;;;5.17;;
4646;SDS011;2336;47.822;7.564;2024-01-30T10:57:50;4.80;;;4.50;;
4646;SDS011;2336;47.822;7.564;2024-01-30T11:00:18;20.30;;;6.13;;
4646;SDS011;2336;47.822;7.564;2024-01-30T11:02:48;6.00;;;5.50;;
4646;SDS011;2336;47.822;7.564;2024-01-30T11:05:22;4.77;;;4.43;;
4646;SDS011;2336;47.822;7.564;2024-01-30T11:07:50;6.43;;;5.20;;
4646;SDS011;2336;47.822;7.564;2024-01-30T11:10:17;5.43;;;5.13;;
4646;SDS011;2336;47.822;7.564;2024-01-30T11:12:45;5.50;;;5.00;;
4646;SDS011;2336;47.822;7.564;2024-01-30T11:15:14;6.97;;;5.40;;
4646;SDS011;2336;47.822;7.564;2024-01-30T11:17:42;4.97;;;4.53;;
4646;SDS011;2336;47.822;7.564;2024-01-30T11:20:11;6.30;;;5.70;;
4646;SDS011;2336;47.822;7.564;2024-01-30T11:22:41;4.93;;;4.63;;
4646;SDS011;2336;47.822;7.564;2024-01-30T11:25:13;6.00;;;4.67;;
4646;SDS011;2336;47.822;7.564;2024-01-30T11:27:41;5.10;;;4.70;;
4646;SDS011;2336;47.822;7.564;2024-01-30T11:30:09;7.57;;;5.83;;
4646;SDS011;2336;47.822;7.564;2024-01-30T11:32:37;4.17;;;3.97;;
4646;SDS011;2336;47.822;7.564;2024-01-30T11:35:04;4.43;;;4.03;;
4646;SDS011;2336;47.822;7.564;2024-01-30T11:37:31;4.80;;;4.40;;
4646;SDS011;2336;47.822;7.564;2024-01-30T11:40:02;5.17;;;4.67;;
4646;SDS011;2336;47.822;7.564;2024-01-30T11:42:30;4.90;;;4.57;;
4646;SDS011;2336;47.822;7.564;2024-01-30T11:44:59;5.53;;;5.13;;
4646;SDS011;2336;47.822;7.564;2024-01-30T11:47:26;4.70;;;4.30;;
4646;SDS011;2336;47.822;7.564;2024-01-30T11:49:55;4.90;;;4.50;;
4646;SDS011;2336;47.822;7.564;2024-01-30T11:52:22;4.73;;;4.43;;
4646;SDS011;2336;47.822;7.564;2024-01-30T11:54:49;5.50;;;4.17;;
4646;SDS011;2336;47.822;7.564;2024-01-30T11:57:16;4.93;;;4.50;;
4646;SDS011;2336;47.822;7.564;2024-01-30T11:59:43;4.83;;;4.43;;
4646;SDS011;2336;47.822;7.564;2024-01-30T12:02:14;5.27;;;4.90;;
4646;SDS011;2336;47.822;7.564;2024-01-30T12:04:41;4.80;;;4.50;;
4646;SDS011;2336;47.822;7.564;2024-01-30T12:07:10;8.83;;;4.70;;
4646;SDS011;2336;47.822;7.564;2024-01-30T12:09:37;8.30;;;5.10;;
4646;SDS011;2336;47.822;7.564;2024-01-30T12:12:04;5.07;;;4.77;;
4646;SDS011;2336;47.822;7.564;2024-01-30T12:14:36;4.77;;;4.47;;
4646;SDS011;2336;47.822;7.564;2024-01-30T12:17:04;7.73;;;5.50;;
4646;SDS011;2336;47.822;7.564;2024-01-30T12:19:32;5.00;;;4.70;;
4646;SDS011;2336;47.822;7.564;2024-01-30T12:21:59;4.90;;;4.60;;
4646;SDS011;2336;47.822;7.564;2024-01-30T12:24:27;6.07;;;5.20;;
4646;SDS011;2336;47.822;7.564;2024-01-30T12:26:56;6.23;;;4.80;;
4646;SDS011;2336;47.822;7.564;2024-01-30T12:29:23;5.47;;;5.00;;
4646;SDS011;2336;47.822;7.564;2024-01-30T12:31:52;5.03;;;4.73;;
4646;SDS011;2336;47.822;7.564;2024-01-30T12:34:19;4.93;;;4.37;;
4646;SDS011;2336;47.822;7.564;2024-01-30T12:36:46;5.40;;;5.00;;
4646;SDS011;2336;47.822;7.564;2024-01-30T12:39:13;4.63;;;4.33;;
4646;SDS011;2336;47.822;7.564;2024-01-30T12:41:42;5.80;;;5.00;;
4646;SDS011;2336;47.822;7.564;2024-01-30T12:44:09;5.97;;;5.50;;
4646;SDS011;2336;47.822;7.564;2024-01-30T12:46:35;5.00;;;4.60;;
4646;SDS011;2336;47.822;7.564;2024-01-30T12:49:02;7.03;;;4.87;;
4646;SDS011;2336;47.822;7.564;2024-01-30T12:51:29;4.80;;;4.50;;
4646;SDS011;2336;47.822;7.564;2024-01-30T12:53:56;4.90;;;4.60;;
4646;SDS011;2336;47.822;7.564;2024-01-30T12:56:23;5.40;;;4.90;;
4646;SDS011;2336;47.822;7.564;2024-01-30T12:58:51;6.83;;;4.47;;
4646;SDS011;2336;47.822;7.564;2024-01-30T13:01:18;5.20;;;4.80;;
4646;SDS011;2336;47.822;7.564;2024-01-30T13:03:44;5.00;;;4.60;;
4646;SDS011;2336;47.822;7.564;2024-01-30T13:06:11;5.30;;;4.90;;
4646;SDS011;2336;47.822;7.564;2024-01-30T13:08:38;4.80;;;4.50;;
4646;SDS011;2336;47.822;7.564;2024-01-30T13:11:05;5.47;;;4.97;;
4646;SDS011;2336;47.822;7.564;2024-01-30T13:13:32;5.63;;;5.00;;
4646;SDS011;2336;47.822;7.564;2024-01-30T13:16:00;5.60;;;5.10;;
4646;SDS011;2336;47.822;7.564;2024-01-30T13:18:27;4.43;;;4.20;;
4646;SDS011;2336;47.822;7.564;2024-01-30T13:20:54;5.30;;;4.90;;
4646;SDS011;2336;47.822;7.564;2024-01-30T13:23:20;4.93;;;4.53;;
4646;SDS011;2336;47.822;7.564;2024-01-30T13:25:47;4.90;;;4.60;;
4646;SDS011;2336;47.822;7.564;2024-01-30T13:28:14;7.60;;;6.57;;
4646;SDS011;2336;47.822;7.564;2024-01-30T13:30:41;5.10;;;4.80;;
4646;SDS011;2336;47.822;7.564;2024-01-30T13:33:09;4.30;;;4.07;;
4646;SDS011;2336;47.822;7.564;2024-01-30T13:35:36;5.30;;;4.87;;
4646;SDS011;2336;47.822;7.564;2024-01-30T13:38:03;7.03;;;6.33;;
4646;SDS011;2336;47.822;7.564;2024-01-30T13:40:30;5.40;;;5.00;;
4646;SDS011;2336;47.822;7.564;2024-01-30T13:42:57;6.73;;;6.23;;
4646;SDS011;2336;47.822;7.564;2024-01-30T13:45:24;5.23;;;4.77;;
4646;SDS011;2336;47.822;7.564;2024-01-30T13:47:51;4.67;;;4.37;;
4646;SDS011;2336;47.822;7.564;2024-01-30T13:50:19;5.27;;;4.90;;
4646;SDS011;2336;47.822;7.564;2024-01-30T13:52:46;4.83;;;4.43;;
4646;SDS011;2336;47.822;7.564;2024-01-30T13:55:13;5.37;;;4.90;;
4646;SDS011;2336;47.822;7.564;2024-01-30T13:57:40;4.83;;;4.00;;
4646;SDS011;2336;47.822;7.564;2024-01-30T14:00:07;5.23;;;4.70;;
4646;SDS011;2336;47.822;7.564;2024-01-30T14:02:34;4.97;;;4.60;;
4646;SDS011;2336;47.822;7.564;2024-01-30T14:05:01;5.33;;;4.90;;
4646;SDS011;2336;47.822;7.564;2024-01-30T14:07:30;6.37;;;5.77;;
4646;SDS011;2336;47.822;7.564;2024-01-30T14:09:57;5.10;;;4.70;;
4646;SDS011;2336;47.822;7.564;2024-01-30T14:12:24;5.10;;;4.70;;
4646;SDS011;2336;47.822;7.564;2024-01-30T14:14:51;5.00;;;4.70;;
4646;SDS011;2336;47.822;7.564;2024-01-30T14:17:18;4.57;;;4.20;;
4646;SDS011;2336;47.822;7.564;2024-01-30T14:19:44;5.63;;;5.13;;
4646;SDS011;2336;47.822;7.564;2024-01-30T14:22:11;6.83;;;5.80;;
4646;SDS011;2336;47.822;7.564;2024-01-30T14:24:39;5.90;;;5.40;;
4646;SDS011;2336;47.822;7.564;2024-01-30T14:27:06;5.60;;;4.97;;
4646;SDS011;2336;47.822;7.564;2024-01-30T14:29:33;6.00;;;4.83;;
4646;SDS011;2336;47.822;7.564;2024-01-30T14:32:00;5.80;;;5.30;;
4646;SDS011;2336;47.822;7.564;2024-01-30T14:34:29;4.80;;;4.50;;
4646;SDS011;2336;47.822;7.564;2024-01-30T14:36:56;5.40;;;5.00;;
4646;SDS011;2336;47.822;7.564;2024-01-30T14:39:23;4.80;;;4.50;;
4646;SDS011;2336;47.822;7.564;2024-01-30T14:41:51;4.67;;;4.37;;
4646;SDS011;2336;47.822;7.564;2024-01-30T14:44:17;5.27;;;4.97;;
4646;SDS011;2336;47.822;7.564;2024-01-30T14:46:45;5.17;;;4.77;;
4646;SDS011;2336;47.822;7.564;2024-01-30T14:49:12;8.13;;;5.30;;
4646;SDS011;2336;47.822;7.564;2024-01-30T14:51:40;6.37;;;5.27;;
4646;SDS011;2336;47.822;7.564;2024-01-30T14:54:07;9.37;;;5.03;;
4646;SDS011;2336;47.822;7.564;2024-01-30T14:56:34;5.47;;;5.07;;
4646;SDS011;2336;47.822;7.564;2024-01-30T14:59:02;5.50;;;4.93;;
4646;SDS011;2336;47.822;7.564;2024-01-30T15:01:30;6.50;;;5.63;;
4646;SDS011;2336;47.822;7.564;2024-01-30T15:03:56;4.97;;;4.57;;